Time;durP1;ratioP1;P1;durP2;ratioP2;P2;SDS_P1;SDS_P2;PMS_P1;PMS_P2;Temp;Humidity;BMP_temperature;BMP_pressure;BME280_temperature;BME280_humidity;BME280_pressure;Samples;Min_cycle;Max_cycle;Signal;HPM_P1;HPM_P2
2021/08/16 00:02:46;;;;;;;11.80;5.73;;;;;;;;;;10465313;28;20286;-71
2021/08/16 00:07:52;;;;;;;9.40;5.33;;;;;;;;;;10463923;28;20217;-70
2021/08/16 00:12:57;;;;;;;8.60;4.53;;;;;;;;;;10465455;28;20312;-71
2021/08/16 00:18:00;;;;;;;9.20;4.47;;;;;;;;;;10468041;28;20664;-71
2021/08/16 00:23:02;;;;;;;9.70;3.90;;;;;;;;;;10477048;28;20266;-69
2021/08/16 00:28:06;;;;;;;9.20;4.50;;;;;;;;;;10476015;28;20265;-70
2021/08/16 00:33:09;;;;;;;8.40;4.57;;;;;;;;;;10478996;28;20216;-70
2021/08/16 00:38:12;;;;;;;9.63;4.60;;;;;;;;;;10474577;28;20204;-70
2021/08/16 00:43:15;;;;;;;9.23;5.40;;;;;;;;;;10498496;28;20217;-71
2021/08/16 00:48:18;;;;;;;9.50;5.10;;;;;;;;;;10479590;28;20197;-70
2021/08/16 00:53:21;;;;;;;11.27;6.57;;;;;;;;;;10479637;28;20216;-70
2021/08/16 00:58:25;;;;;;;11.93;6.47;;;;;;;;;;10488755;28;20632;-69
2021/08/16 01:03:28;;;;;;;11.83;6.33;;;;;;;;;;10471759;28;20303;-68
2021/08/16 01:08:30;;;;;;;12.37;6.53;;;;;;;;;;10466727;28;20224;-69
2021/08/16 01:13:34;;;;;;;11.70;6.07;;;;;;;;;;10481735;28;20652;-69
2021/08/16 01:18:37;;;;;;;9.57;6.10;;;;;;;;;;10480028;28;20724;-69
2021/08/16 01:23:41;;;;;;;12.77;6.10;;;;;;;;;;10472128;28;20213;-70
2021/08/16 01:28:45;;;;;;;10.20;3.67;;;;;;;;;;10470537;28;20196;-70
2021/08/16 01:33:48;;;;;;;10.23;4.87;;;;;;;;;;10477385;28;20238;-73
2021/08/16 01:38:50;;;;;;;8.47;4.20;;;;;;;;;;10480046;28;20246;-73
2021/08/16 01:43:54;;;;;;;11.83;4.73;;;;;;;;;;10482548;28;20855;-74
2021/08/16 01:48:57;;;;;;;11.63;5.70;;;;;;;;;;10475117;28;20280;-74
2021/08/16 01:53:59;;;;;;;10.70;6.23;;;;;;;;;;10477637;28;20195;-74
2021/08/16 01:59:03;;;;;;;14.27;6.83;;;;;;;;;;10483136;28;20196;-76
2021/08/16 02:04:06;;;;;;;13.43;7.43;;;;;;;;;;10469835;28;20220;-74
2021/08/16 02:09:09;;;;;;;13.43;6.13;;;;;;;;;;10480658;28;20220;-74
2021/08/16 02:14:12;;;;;;;14.03;7.50;;;;;;;;;;10478997;28;20267;-74
2021/08/16 02:19:15;;;;;;;13.83;7.70;;;;;;;;;;10497832;28;20228;-75
2021/08/16 02:24:17;;;;;;;13.80;8.27;;;;;;;;;;10486711;28;20250;-75
2021/08/16 02:29:21;;;;;;;15.70;9.13;;;;;;;;;;10478408;28;20239;-74
2021/08/16 02:34:24;;;;;;;14.53;8.80;;;;;;;;;;10477487;28;20216;-74
2021/08/16 02:39:26;;;;;;;18.03;9.50;;;;;;;;;;10473538;28;20724;-75
2021/08/16 02:44:30;;;;;;;15.57;9.30;;;;;;;;;;10473037;28;20236;-74
2021/08/16 02:49:33;;;;;;;13.53;8.63;;;;;;;;;;10469515;28;20700;-75
2021/08/16 02:54:35;;;;;;;15.43;8.10;;;;;;;;;;10470144;28;20204;-72
2021/08/16 02:59:40;;;;;;;14.47;8.50;;;;;;;;;;10475560;28;20711;-75
2021/08/16 03:04:42;;;;;;;14.27;8.23;;;;;;;;;;10469106;28;20730;-75
2021/08/16 03:09:45;;;;;;;15.70;8.50;;;;;;;;;;10475662;28;20308;-74
2021/08/16 03:14:49;;;;;;;14.03;8.40;;;;;;;;;;10474322;28;20277;-73
2021/08/16 03:19:51;;;;;;;14.10;8.50;;;;;;;;;;10473226;28;20217;-73
2021/08/16 03:24:54;;;;;;;14.93;8.93;;;;;;;;;;10469130;28;20193;-74
2021/08/16 03:29:58;;;;;;;14.93;8.70;;;;;;;;;;10476687;28;20232;-74
2021/08/16 03:35:01;;;;;;;12.60;7.90;;;;;;;;;;10481575;28;20200;-74
2021/08/16 03:40:04;;;;;;;15.13;8.20;;;;;;;;;;10474093;28;20290;-74
2021/08/16 03:45:10;;;;;;;15.37;8.60;;;;;;;;;;10481377;28;20192;-74
2021/08/16 03:50:13;;;;;;;13.40;8.57;;;;;;;;;;10469794;28;20212;-75
2021/08/16 03:55:15;;;;;;;14.43;9.40;;;;;;;;;;10472035;28;20245;-74
2021/08/16 04:00:19;;;;;;;17.40;10.27;;;;;;;;;;10483227;28;20512;-67
2021/08/16 04:05:22;;;;;;;15.40;8.67;;;;;;;;;;10472023;28;20238;-68
2021/08/16 04:10:25;;;;;;;16.67;10.93;;;;;;;;;;10474615;28;20219;-68
2021/08/16 04:15:29;;;;;;;15.77;9.10;;;;;;;;;;10473310;28;20199;-68
2021/08/16 04:20:32;;;;;;;16.40;9.10;;;;;;;;;;10473670;28;20228;-68
2021/08/16 04:25:35;;;;;;;17.13;8.73;;;;;;;;;;10475316;28;20185;-68
2021/08/16 04:30:39;;;;;;;16.17;9.17;;;;;;;;;;10472991;28;20208;-67
2021/08/16 04:35:41;;;;;;;12.80;8.57;;;;;;;;;;10478407;28;20668;-68
2021/08/16 04:40:44;;;;;;;15.03;8.47;;;;;;;;;;10477710;28;20262;-68
2021/08/16 04:45:48;;;;;;;14.40;8.33;;;;;;;;;;10479634;28;20216;-67
2021/08/16 04:50:50;;;;;;;15.77;8.93;;;;;;;;;;10464617;28;20283;-68
2021/08/16 04:55:53;;;;;;;15.87;8.43;;;;;;;;;;10472204;28;20193;-67
2021/08/16 05:00:58;;;;;;;13.70;8.70;;;;;;;;;;10461170;28;20581;-68
2021/08/16 05:06:05;;;;;;;15.07;7.77;;;;;;;;;;10471455;28;20189;-68
2021/08/16 05:11:09;;;;;;;13.37;8.30;;;;;;;;;;10483579;28;20200;-68
2021/08/16 05:16:13;;;;;;;12.97;8.27;;;;;;;;;;10479850;28;20192;-68
2021/08/16 05:21:15;;;;;;;12.50;6.97;;;;;;;;;;10483405;28;20211;-68
2021/08/16 05:26:18;;;;;;;15.70;7.70;;;;;;;;;;10488162;28;20543;-69
2021/08/16 05:31:22;;;;;;;15.90;7.83;;;;;;;;;;10478155;28;20208;-67
2021/08/16 05:36:24;;;;;;;13.77;8.40;;;;;;;;;;10482050;28;20209;-69
2021/08/16 05:41:27;;;;;;;14.90;8.40;;;;;;;;;;10487764;28;20382;-68
2021/08/16 05:46:31;;;;;;;13.67;7.40;;;;;;;;;;10491231;28;20661;-68
2021/08/16 05:51:34;;;;;;;10.53;5.93;;;;;;;;;;10485022;28;20763;-69
2021/08/16 05:56:36;;;;;;;11.23;5.43;;;;;;;;;;10484378;28;20365;-68
2021/08/16 06:01:40;;;;;;;11.83;6.33;;;;;;;;;;10479298;28;20215;-69
2021/08/16 06:06:43;;;;;;;10.37;5.83;;;;;;;;;;10480696;28;20197;-69
2021/08/16 06:11:45;;;;;;;8.93;4.90;;;;;;;;;;10478426;28;20300;-70
2021/08/16 06:16:49;;;;;;;11.07;6.30;;;;;;;;;;10486418;28;20204;-69
2021/08/16 06:21:52;;;;;;;9.87;5.47;;;;;;;;;;10474150;28;20209;-68
2021/08/16 06:26:54;;;;;;;9.77;4.90;;;;;;;;;;10473344;28;20208;-70
2021/08/16 06:31:58;;;;;;;9.13;4.33;;;;;;;;;;10468786;28;20679;-69
2021/08/16 06:37:01;;;;;;;9.90;5.00;;;;;;;;;;10479279;28;20203;-69
2021/08/16 06:42:04;;;;;;;8.40;4.17;;;;;;;;;;10477094;28;20557;-70
2021/08/16 06:47:08;;;;;;;7.60;3.90;;;;;;;;;;10474190;28;20285;-70
2021/08/16 06:52:11;;;;;;;9.37;4.60;;;;;;;;;;10477123;28;20347;-69
2021/08/16 06:57:13;;;;;;;9.65;4.10;;;;;;;;;;10478111;28;20192;-70
2021/08/16 07:02:17;;;;;;;7.13;3.47;;;;;;;;;;10470384;28;20309;-70
2021/08/16 07:07:20;;;;;;;7.82;4.07;;;;;;;;;;10479463;28;20200;-70
2021/08/16 07:12:22;;;;;;;7.57;3.63;;;;;;;;;;10466872;28;20266;-70
2021/08/16 07:17:26;;;;;;;7.43;3.45;;;;;;;;;;10477403;28;20277;-70
2021/08/16 07:22:29;;;;;;;7.45;3.45;;;;;;;;;;10480688;28;20250;-68
2021/08/16 07:27:31;;;;;;;6.72;3.63;;;;;;;;;;10478604;28;20222;-69
2021/08/16 07:32:35;;;;;;;8.50;4.10;;;;;;;;;;10466615;28;20221;-69
2021/08/16 07:37:38;;;;;;;7.20;3.20;;;;;;;;;;10473695;28;20699;-70
2021/08/16 07:42:40;;;;;;;5.97;3.70;;;;;;;;;;10467670;28;20282;-68
2021/08/16 07:47:45;;;;;;;8.15;3.55;;;;;;;;;;10483393;28;20699;-70
2021/08/16 07:52:48;;;;;;;5.88;3.47;;;;;;;;;;10461084;28;20290;-70
2021/08/16 07:57:50;;;;;;;8.10;3.88;;;;;;;;;;10477171;28;20198;-69
2021/08/16 08:02:55;;;;;;;6.28;3.63;;;;;;;;;;10472430;28;20216;-69
2021/08/16 08:07:59;;;;;;;8.55;3.53;;;;;;;;;;10475090;28;20215;-71
2021/08/16 08:13:01;;;;;;;5.75;3.30;;;;;;;;;;10478703;28;20212;-69
2021/08/16 08:18:05;;;;;;;7.35;4.00;;;;;;;;;;10473471;28;20261;-72
2021/08/16 08:23:08;;;;;;;6.45;3.63;;;;;;;;;;10465422;28;20207;-69
2021/08/16 08:28:15;;;;;;;8.32;4.07;;;;;;;;;;10463279;28;20204;-70
2021/08/16 08:33:19;;;;;;;8.35;3.92;;;;;;;;;;10468698;28;20640;-70
2021/08/16 08:38:21;;;;;;;8.60;4.20;;;;;;;;;;10472195;28;20435;-70
2021/08/16 08:43:24;;;;;;;7.15;4.15;;;;;;;;;;10474783;28;20707;-70
2021/08/16 08:48:28;;;;;;;7.10;3.75;;;;;;;;;;10481718;28;20261;-69
2021/08/16 08:53:31;;;;;;;7.85;3.85;;;;;;;;;;10486768;28;20201;-69
2021/08/16 08:58:33;;;;;;;10.40;4.38;;;;;;;;;;10487090;28;20227;-69
2021/08/16 09:03:46;;;;;;;8.57;4.05;;;;;;;;;;10485613;28;20649;-70
2021/08/16 09:08:51;;;;;;;8.48;4.50;;;;;;;;;;10484645;28;20197;-70
2021/08/16 09:13:56;;;;;;;8.70;4.38;;;;;;;;;;10481155;28;20298;-68
2021/08/16 09:19:00;;;;;;;8.43;4.28;;;;;;;;;;10476774;28;20640;-72
2021/08/16 09:24:04;;;;;;;9.10;4.57;;;;;;;;;;10479112;28;20319;-72
2021/08/16 09:29:10;;;;;;;11.40;5.00;;;;;;;;;;10468644;28;20228;-72
2021/08/16 09:34:14;;;;;;;7.78;4.40;;;;;;;;;;10472747;28;20227;-74
2021/08/16 09:39:17;;;;;;;11.07;4.95;;;;;;;;;;10479484;28;20276;-73
2021/08/16 09:44:20;;;;;;;7.82;4.30;;;;;;;;;;10475882;28;20656;-74
2021/08/16 09:49:23;;;;;;;8.43;4.80;;;;;;;;;;10474550;28;20220;-74
2021/08/16 09:54:26;;;;;;;8.30;4.43;;;;;;;;;;10480435;28;20278;-75
2021/08/16 09:59:30;;;;;;;8.85;4.75;;;;;;;;;;10478668;28;20231;-73
2021/08/16 10:04:35;;;;;;;10.05;5.18;;;;;;;;;;10491149;28;20216;-72
2021/08/16 10:09:40;;;;;;;10.07;5.40;;;;;;;;;;10485551;28;20231;-74
2021/08/16 10:14:45;;;;;;;9.27;5.25;;;;;;;;;;10483601;28;20193;-72
2021/08/16 10:19:57;;;;;;;10.98;6.13;;;;;;;;;;10479759;28;20700;-70
2021/08/16 10:25:07;;;;;;;12.00;6.75;;;;;;;;;;10486629;28;20228;-70
2021/08/16 10:30:11;;;;;;;11.75;6.47;;;;;;;;;;10480780;28;20239;-70
2021/08/16 10:35:17;;;;;;;11.15;6.32;;;;;;;;;;10482723;28;20201;-70
2021/08/16 10:40:22;;;;;;;9.02;5.57;;;;;;;;;;10486411;28;20598;-70
2021/08/16 10:45:28;;;;;;;11.10;7.00;;;;;;;;;;10482190;28;20298;-71
2021/08/16 10:50:32;;;;;;;11.05;6.43;;;;;;;;;;10482906;28;20641;-70
2021/08/16 10:55:36;;;;;;;10.48;6.78;;;;;;;;;;10482148;28;20242;-70
2021/08/16 11:00:39;;;;;;;13.70;7.65;;;;;;;;;;10482004;28;20209;-70
2021/08/16 11:05:43;;;;;;;11.27;7.63;;;;;;;;;;10475092;28;20653;-71
2021/08/16 11:10:48;;;;;;;13.63;7.65;;;;;;;;;;10482615;28;20315;-71
2021/08/16 11:15:50;;;;;;;12.52;7.65;;;;;;;;;;10476222;28;20195;-71
2021/08/16 11:20:57;;;;;;;13.02;8.48;;;;;;;;;;10473580;28;20292;-71
2021/08/16 11:26:00;;;;;;;13.07;8.82;;;;;;;;;;10469893;28;20220;-71
2021/08/16 11:31:04;;;;;;;12.05;8.35;;;;;;;;;;10481697;28;20217;-71
2021/08/16 11:36:09;;;;;;;10.90;7.53;;;;;;;;;;10474474;28;20286;-71
2021/08/16 11:41:12;;;;;;;13.07;8.52;;;;;;;;;;10472358;28;20221;-70
2021/08/16 11:46:34;;;;;;;13.30;8.20;;;;;;;;;;10471978;28;20224;-71
2021/08/16 11:51:42;;;;;;;12.48;8.73;;;;;;;;;;10472615;28;20684;-70
2021/08/16 11:56:51;;;;;;;11.57;7.65;;;;;;;;;;10468849;28;20193;-70
2021/08/16 12:01:55;;;;;;;14.70;8.90;;;;;;;;;;10470398;28;20350;-71
2021/08/16 12:07:02;;;;;;;13.95;8.95;;;;;;;;;;10458449;28;20235;-71
2021/08/16 12:12:06;;;;;;;14.18;9.63;;;;;;;;;;10469552;28;20294;-71
2021/08/16 12:17:09;;;;;;;14.80;10.68;;;;;;;;;;10470919;28;20216;-71
2021/08/16 12:22:14;;;;;;;20.20;13.35;;;;;;;;;;10476723;28;20212;-70
2021/08/16 12:27:17;;;;;;;17.47;11.33;;;;;;;;;;10472250;28;20243;-70
2021/08/16 12:32:21;;;;;;;15.57;11.32;;;;;;;;;;10478764;28;20751;-70
2021/08/16 12:37:26;;;;;;;18.63;12.60;;;;;;;;;;10468388;28;20671;-70
2021/08/16 12:42:29;;;;;;;15.70;10.20;;;;;;;;;;10474702;28;20377;-70
2021/08/16 12:47:33;;;;;;;15.40;9.67;;;;;;;;;;10472330;28;20850;-70
2021/08/16 12:52:37;;;;;;;13.53;8.83;;;;;;;;;;10468680;28;20241;-70
2021/08/16 12:57:40;;;;;;;14.70;9.97;;;;;;;;;;10466694;28;20239;-70
2021/08/16 13:02:43;;;;;;;14.10;8.90;;;;;;;;;;10473590;28;20867;-70
2021/08/16 13:07:52;;;;;;;11.27;8.20;;;;;;;;;;10463176;28;20215;-71
2021/08/16 13:12:57;;;;;;;16.30;8.73;;;;;;;;;;10470273;28;20311;-71
2021/08/16 13:18:03;;;;;;;12.82;8.93;;;;;;;;;;10473648;28;20217;-71
2021/08/16 13:23:09;;;;;;;13.85;10.18;;;;;;;;;;10477760;28;20223;-71
2021/08/16 13:28:12;;;;;;;15.23;9.88;;;;;;;;;;10481582;28;20231;-75
2021/08/16 13:33:23;;;;;;;16.33;10.63;;;;;;;;;;10483410;28;20213;-72
2021/08/16 13:38:27;;;;;;;16.60;10.33;;;;;;;;;;10482104;28;20248;-72
2021/08/16 13:43:31;;;;;;;15.53;10.37;;;;;;;;;;10485379;28;20270;-72
2021/08/16 13:48:34;;;;;;;16.27;11.10;;;;;;;;;;10483982;28;20185;-71
2021/08/16 13:53:39;;;;;;;18.27;11.17;;;;;;;;;;10480200;28;20299;-72
2021/08/16 13:58:44;;;;;;;15.23;10.53;;;;;;;;;;10476747;28;20276;-71
2021/08/16 14:03:47;;;;;;;14.77;10.60;;;;;;;;;;10484441;28;20208;-71
2021/08/16 14:08:54;;;;;;;14.77;10.20;;;;;;;;;;10467875;28;20235;-73
2021/08/16 14:13:57;;;;;;;16.07;9.47;;;;;;;;;;10483879;28;20266;-72
2021/08/16 14:19:00;;;;;;;13.70;9.23;;;;;;;;;;10475797;28;20232;-71
2021/08/16 14:24:13;;;;;;;14.83;10.00;;;;;;;;;;10481471;28;20240;-71
2021/08/16 14:29:21;;;;;;;14.70;9.00;;;;;;;;;;10470315;28;20675;-71
2021/08/16 14:34:25;;;;;;;12.90;8.30;;;;;;;;;;10475347;28;20249;-72
2021/08/16 14:39:29;;;;;;;14.87;8.93;;;;;;;;;;10475788;28;20251;-73
2021/08/16 14:44:35;;;;;;;14.40;8.43;;;;;;;;;;10483487;28;20319;-73
2021/08/16 14:49:37;;;;;;;11.63;7.27;;;;;;;;;;10475636;28;20240;-71
2021/08/16 14:54:42;;;;;;;12.07;6.33;;;;;;;;;;10476311;28;20280;-73
2021/08/16 14:59:45;;;;;;;10.37;7.03;;;;;;;;;;10473186;28;20230;-71
2021/08/16 15:04:52;;;;;;;11.53;6.47;;;;;;;;;;10475320;28;20296;-73
2021/08/16 15:09:56;;;;;;;11.47;6.40;;;;;;;;;;10483041;28;20277;-72
2021/08/16 15:15:04;;;;;;;10.53;6.00;;;;;;;;;;10467523;28;20535;-71
2021/08/16 15:20:11;;;;;;;10.70;6.10;;;;;;;;;;10480172;28;20652;-73
2021/08/16 15:25:16;;;;;;;12.90;7.17;;;;;;;;;;10478677;28;20211;-72
2021/08/16 15:30:21;;;;;;;10.83;6.10;;;;;;;;;;10478147;28;20307;-73
2021/08/16 15:35:25;;;;;;;15.37;5.97;;;;;;;;;;10481247;28;20196;-76
2021/08/16 15:40:29;;;;;;;14.50;7.60;;;;;;;;;;10472423;28;20319;-73
2021/08/16 15:45:32;;;;;;;15.27;8.87;;;;;;;;;;10477519;28;20851;-74
2021/08/16 15:50:39;;;;;;;16.60;8.40;;;;;;;;;;10471407;28;20277;-75
2021/08/16 15:55:43;;;;;;;17.90;10.20;;;;;;;;;;10469308;28;20208;-74
2021/08/16 16:00:46;;;;;;;15.47;9.93;;;;;;;;;;10474796;28;20237;-73
2021/08/16 16:05:48;;;;;;;14.90;8.87;;;;;;;;;;10468913;28;20262;-73
2021/08/16 16:10:52;;;;;;;16.03;9.00;;;;;;;;;;10471959;28;20212;-72
2021/08/16 16:15:55;;;;;;;16.47;8.57;;;;;;;;;;10472755;28;20211;-73
2021/08/16 16:20:57;;;;;;;16.87;10.07;;;;;;;;;;10475669;28;20273;-72
2021/08/16 16:26:01;;;;;;;16.53;10.90;;;;;;;;;;10474820;28;20302;-72
2021/08/16 16:31:04;;;;;;;14.47;7.93;;;;;;;;;;10470762;28;20261;-72
2021/08/16 16:36:07;;;;;;;17.87;10.77;;;;;;;;;;10481491;28;20257;-74
2021/08/16 16:41:11;;;;;;;13.20;8.37;;;;;;;;;;10477294;28;20735;-72
2021/08/16 16:46:14;;;;;;;12.63;7.10;;;;;;;;;;10481350;28;20220;-73
2021/08/16 16:51:19;;;;;;;13.60;7.00;;;;;;;;;;10470441;28;20208;-74
2021/08/16 16:56:23;;;;;;;15.20;7.87;;;;;;;;;;10471297;28;20207;-74
2021/08/16 17:01:25;;;;;;;12.33;6.03;;;;;;;;;;10482050;28;20295;-73
2021/08/16 17:06:28;;;;;;;4.97;2.50;;;;;;;;;;10478518;28;20212;-73
2021/08/16 17:11:32;;;;;;;9.13;5.27;;;;;;;;;;10475797;28;20239;-73
2021/08/16 17:16:35;;;;;;;8.77;4.43;;;;;;;;;;10486558;28;20196;-72
2021/08/16 17:21:38;;;;;;;7.90;3.50;;;;;;;;;;10486828;28;20319;-73
2021/08/16 17:26:42;;;;;;;7.43;4.10;;;;;;;;;;10480720;28;20225;-74
2021/08/16 17:31:46;;;;;;;6.60;3.00;;;;;;;;;;10480524;28;20636;-73
2021/08/16 17:36:48;;;;;;;8.40;3.13;;;;;;;;;;10478634;28;20181;-73
2021/08/16 17:41:52;;;;;;;5.97;3.03;;;;;;;;;;10483362;28;20289;-72
2021/08/16 17:46:56;;;;;;;6.60;2.83;;;;;;;;;;10485140;28;20287;-73
2021/08/16 17:51:58;;;;;;;7.13;2.63;;;;;;;;;;10476488;28;20270;-73
2021/08/16 17:57:02;;;;;;;9.93;3.00;;;;;;;;;;10474982;28;20204;-73
2021/08/16 18:02:05;;;;;;;5.73;2.80;;;;;;;;;;10479111;28;20701;-74
2021/08/16 18:07:08;;;;;;;8.00;4.00;;;;;;;;;;10480702;28;20250;-73
2021/08/16 18:12:12;;;;;;;7.60;3.10;;;;;;;;;;10481885;28;20213;-75
2021/08/16 18:17:14;;;;;;;6.40;2.43;;;;;;;;;;10478197;28;20269;-74
2021/08/16 18:22:17;;;;;;;9.17;3.87;;;;;;;;;;10488753;28;20288;-73
2021/08/16 18:27:21;;;;;;;7.27;3.17;;;;;;;;;;10488127;28;20203;-74
2021/08/16 18:32:24;;;;;;;8.77;3.47;;;;;;;;;;10491972;28;20571;-73
2021/08/16 18:37:26;;;;;;;11.17;4.40;;;;;;;;;;10485173;28;20193;-74
2021/08/16 18:42:30;;;;;;;8.73;3.60;;;;;;;;;;10488227;28;20216;-72
2021/08/16 18:47:33;;;;;;;8.37;3.17;;;;;;;;;;10485973;28;20208;-72
2021/08/16 18:52:35;;;;;;;8.20;3.03;;;;;;;;;;10474535;28;20220;-72
2021/08/16 18:57:39;;;;;;;8.77;3.10;;;;;;;;;;10484924;28;20196;-72
2021/08/16 19:02:42;;;;;;;8.97;3.10;;;;;;;;;;10481077;28;20606;-72
2021/08/16 19:07:45;;;;;;;9.47;3.00;;;;;;;;;;10475632;28;20216;-72
2021/08/16 19:12:49;;;;;;;8.07;2.80;;;;;;;;;;10488433;28;20326;-73
2021/08/16 19:17:52;;;;;;;6.87;3.10;;;;;;;;;;10475044;28;20295;-71
2021/08/16 19:22:55;;;;;;;7.30;2.80;;;;;;;;;;10479051;28;20714;-70
2021/08/16 19:27:59;;;;;;;7.37;3.03;;;;;;;;;;10486761;28;20270;-69
2021/08/16 19:33:02;;;;;;;7.13;3.03;;;;;;;;;;10486678;28;20299;-69
2021/08/16 19:38:05;;;;;;;7.67;2.73;;;;;;;;;;10483539;28;20201;-68
2021/08/16 19:43:09;;;;;;;6.30;2.33;;;;;;;;;;10478873;28;20247;-68
2021/08/16 19:48:11;;;;;;;3.43;1.70;;;;;;;;;;10481930;28;20475;-71
2021/08/16 19:53:14;;;;;;;7.53;2.57;;;;;;;;;;10476428;28;20275;-71
2021/08/16 19:58:18;;;;;;;7.43;2.30;;;;;;;;;;10481094;28;20188;-71
2021/08/16 20:03:20;;;;;;;4.97;2.03;;;;;;;;;;10481443;28;20288;-72
2021/08/16 20:08:23;;;;;;;5.30;2.30;;;;;;;;;;10473626;28;20631;-70
2021/08/16 20:13:28;;;;;;;7.57;2.50;;;;;;;;;;10483911;28;20239;-70
2021/08/16 20:18:30;;;;;;;7.20;2.40;;;;;;;;;;10483603;28;20212;-70
2021/08/16 20:23:33;;;;;;;6.40;2.10;;;;;;;;;;10479566;28;20220;-70
2021/08/16 20:28:38;;;;;;;6.63;2.27;;;;;;;;;;10475745;28;20274;-72
2021/08/16 20:33:40;;;;;;;5.40;2.37;;;;;;;;;;10478491;28;20587;-70
2021/08/16 20:38:43;;;;;;;6.97;2.33;;;;;;;;;;10486635;28;20267;-69
2021/08/16 20:43:47;;;;;;;4.63;2.40;;;;;;;;;;10488655;28;20246;-72
2021/08/16 20:48:49;;;;;;;5.93;2.20;;;;;;;;;;10491979;28;20235;-71
2021/08/16 20:53:52;;;;;;;6.20;2.20;;;;;;;;;;10486782;28;20220;-70
2021/08/16 20:58:56;;;;;;;6.03;2.27;;;;;;;;;;10489236;28;20659;-70
2021/08/16 21:03:59;;;;;;;5.87;2.20;;;;;;;;;;10486625;28;20219;-73
2021/08/16 21:09:03;;;;;;;4.73;1.93;;;;;;;;;;10485979;28;20202;-72
2021/08/16 21:14:07;;;;;;;5.97;2.23;;;;;;;;;;10487643;28;20223;-72
2021/08/16 21:19:09;;;;;;;5.37;2.30;;;;;;;;;;10493165;28;20279;-74
2021/08/16 21:24:12;;;;;;;10.10;2.53;;;;;;;;;;10489068;28;20196;-73
2021/08/16 21:29:15;;;;;;;5.30;2.10;;;;;;;;;;10487863;28;20254;-73
2021/08/16 21:34:18;;;;;;;7.30;2.20;;;;;;;;;;10479289;28;20279;-73
2021/08/16 21:39:21;;;;;;;5.87;2.33;;;;;;;;;;10478952;28;20232;-72
2021/08/16 21:44:25;;;;;;;5.17;2.00;;;;;;;;;;10474986;28;20660;-71
2021/08/16 21:49:27;;;;;;;4.63;1.83;;;;;;;;;;10480422;28;20254;-72
2021/08/16 21:54:30;;;;;;;5.37;2.07;;;;;;;;;;10474013;28;20199;-71
2021/08/16 21:59:34;;;;;;;5.97;2.00;;;;;;;;;;10483630;28;20287;-71
2021/08/16 22:04:36;;;;;;;3.83;1.80;;;;;;;;;;10477556;28;20188;-72
2021/08/16 22:09:39;;;;;;;3.83;1.67;;;;;;;;;;10477671;28;20217;-72
2021/08/16 22:14:43;;;;;;;3.83;1.40;;;;;;;;;;10487385;28;20226;-71
2021/08/16 22:19:45;;;;;;;7.60;1.80;;;;;;;;;;10475354;28;20278;-72
2021/08/16 22:24:48;;;;;;;4.10;1.77;;;;;;;;;;10480684;28;20220;-72
2021/08/16 22:29:52;;;;;;;6.97;1.90;;;;;;;;;;10486651;28;20679;-72
2021/08/16 22:34:54;;;;;;;4.63;1.60;;;;;;;;;;10481834;28;20184;-71
2021/08/16 22:39:57;;;;;;;3.60;1.60;;;;;;;;;;10486304;28;20744;-72
2021/08/16 22:45:00;;;;;;;3.63;1.57;;;;;;;;;;10467490;28;20252;-72
2021/08/16 22:50:03;;;;;;;2.97;1.33;;;;;;;;;;10472545;28;20232;-72
2021/08/16 22:55:06;;;;;;;4.03;1.63;;;;;;;;;;10474556;28;20284;-71
2021/08/16 23:00:11;;;;;;;4.13;1.70;;;;;;;;;;10483170;28;20287;-72
2021/08/16 23:05:14;;;;;;;5.27;1.90;;;;;;;;;;10480373;28;20197;-72
2021/08/16 23:10:16;;;;;;;3.77;1.87;;;;;;;;;;10480616;28;20224;-71
2021/08/16 23:15:20;;;;;;;10.57;4.57;;;;;;;;;;10471553;28;20632;-71
2021/08/16 23:20:24;;;;;;;12.37;5.87;;;;;;;;;;10475810;28;20699;-72
2021/08/16 23:25:26;;;;;;;12.77;6.03;;;;;;;;;;10483083;28;20192;-71
2021/08/16 23:30:30;;;;;;;11.97;6.33;;;;;;;;;;10470295;28;20567;-72
2021/08/16 23:35:33;;;;;;;13.47;6.60;;;;;;;;;;10470119;28;20204;-70
2021/08/16 23:40:35;;;;;;;14.27;6.77;;;;;;;;;;10472647;28;20212;-71
2021/08/16 23:45:39;;;;;;;13.03;6.30;;;;;;;;;;10474697;28;20225;-72
2021/08/16 23:50:42;;;;;;;12.70;5.97;;;;;;;;;;10481504;28;20224;-71
2021/08/16 23:55:44;;;;;;;13.07;6.00;;;;;;;;;;10470272;28;20196;-73
